RYR76MJ LEPA-EDSB
Flight info
| Callsign | RYR76MJ |
|---|---|
| Flight time | 1h 33m |
| Altitude | 36000 |
| Route | MEROS DCT LAPIT DCT CHELY N853 LUMAS DCT UNANA DCT STP DCT RAPED DCT PIGOS DCT EKSID DCT NOSTA DCT NOPMU DCT NEDED DCT CANNE DCT KESEX Z652 TRA/N0394F240 Z652 MOPAN Z141 KBA |
| Aircraft | A320/M-SDE3FGHIRWY/LB1 |
Departure
| Time | 2026-05-04 07:55 |
|---|---|
| Airport | Palma de Mallorca Airport (LEPA) |
Arrival
| Time | 2026-05-04 09:28 |
|---|---|
| Airport | Karlsruhe Baden-Baden Airport (EDSB) |
| Time | Latitude | Longitude | Altitude | Speed | Heading |
|---|---|---|---|---|---|
| 2026-05-04 07:28 | 39.55066 | 2.73579 | 36 ft | 0 kts | 164° |
| 2026-05-04 07:46 | 39.55086 | 2.73573 | 36 ft | 4 kts | 172° |
| 2026-05-04 07:46 | 39.55109 | 2.73568 | 38 ft | 3 kts | 163° |
| 2026-05-04 07:47 | 39.55132 | 2.73554 | 37 ft | 4 kts | 131° |
| 2026-05-04 07:47 | 39.55141 | 2.73526 | 37 ft | 4 kts | 80° |
| 2026-05-04 07:47 | 39.55132 | 2.73495 | 38 ft | 3 kts | 59° |
| 2026-05-04 07:49 | 39.55116 | 2.73462 | 37 ft | 0 kts | 59° |
| 2026-05-04 07:50 | 39.55125 | 2.73482 | 37 ft | 6 kts | 59° |
| 2026-05-04 07:50 | 39.55158 | 2.73554 | 38 ft | 13 kts | 59° |
| 2026-05-04 07:50 | 39.55170 | 2.73659 | 38 ft | 11 kts | 91° |
| 2026-05-04 07:50 | 39.55169 | 2.73748 | 38 ft | 9 kts | 113° |
| 2026-05-04 07:51 | 39.55168 | 2.73778 | 38 ft | 0 kts | 85° |
| 2026-05-04 07:51 | 39.55171 | 2.73794 | 38 ft | 7 kts | 73° |
| 2026-05-04 07:51 | 39.55233 | 2.73797 | 38 ft | 15 kts | 334° |
| 2026-05-04 07:52 | 39.55359 | 2.73706 | 38 ft | 23 kts | 329° |
| 2026-05-04 07:52 | 39.55486 | 2.73604 | 36 ft | 17 kts | 328° |
| 2026-05-04 07:52 | 39.55594 | 2.73520 | 38 ft | 19 kts | 331° |
| 2026-05-04 07:52 | 39.55695 | 2.73580 | 38 ft | 19 kts | 57° |
| 2026-05-04 07:53 | 39.55768 | 2.73744 | 37 ft | 24 kts | 57° |
| 2026-05-04 07:54 | 39.54659 | 2.70958 | 516 ft | 163 kts | 238° |
| 2026-05-04 07:55 | 39.54273 | 2.70106 | 1001 ft | 162 kts | 238° |
| 2026-05-04 07:55 | 39.53673 | 2.68874 | 1777 ft | 162 kts | 234° |
| 2026-05-04 07:55 | 39.53005 | 2.67613 | 2186 ft | 179 kts | 236° |
| 2026-05-04 07:55 | 39.52344 | 2.66150 | 2555 ft | 200 kts | 241° |
| 2026-05-04 07:56 | 39.51655 | 2.64459 | 2911 ft | 225 kts | 240° |
| 2026-05-04 07:56 | 39.50851 | 2.62652 | 3562 ft | 235 kts | 238° |
| 2026-05-04 07:56 | 39.49950 | 2.60890 | 4527 ft | 232 kts | 230° |
| 2026-05-04 07:56 | 39.48724 | 2.59575 | 5491 ft | 230 kts | 208° |
| 2026-05-04 07:57 | 39.47304 | 2.58609 | 6308 ft | 235 kts | 208° |
| 2026-05-04 07:57 | 39.45801 | 2.57614 | 6851 ft | 251 kts | 207° |
| 2026-05-04 07:57 | 39.44203 | 2.56535 | 7445 ft | 263 kts | 208° |
| 2026-05-04 07:57 | 39.42455 | 2.55766 | 8199 ft | 273 kts | 188° |
| 2026-05-04 07:58 | 39.40527 | 2.55970 | 8896 ft | 287 kts | 165° |
| 2026-05-04 07:58 | 39.38765 | 2.57254 | 9647 ft | 300 kts | 140° |
| 2026-05-04 07:58 | 39.37386 | 2.59339 | 10318 ft | 312 kts | 131° |
| 2026-05-04 07:58 | 39.36010 | 2.61621 | 10667 ft | 333 kts | 130° |
| 2026-05-04 07:59 | 39.34567 | 2.64115 | 10839 ft | 359 kts | 129° |
| 2026-05-04 07:59 | 39.33059 | 2.66766 | 11319 ft | 370 kts | 131° |
| 2026-05-04 07:59 | 39.31290 | 2.69187 | 12076 ft | 370 kts | 142° |
| 2026-05-04 07:59 | 39.29342 | 2.71320 | 12998 ft | 366 kts | 144° |
| 2026-05-04 08:00 | 39.27635 | 2.73774 | 13897 ft | 372 kts | 125° |
| 2026-05-04 08:00 | 39.26656 | 2.76871 | 14711 ft | 376 kts | 108° |
| 2026-05-04 08:00 | 39.26031 | 2.80131 | 15554 ft | 373 kts | 106° |
| 2026-05-04 08:02 | 39.31660 | 3.02363 | 18934 ft | 427 kts | 56° |
| 2026-05-04 08:02 | 39.33230 | 3.05647 | 19388 ft | 432 kts | 56° |
| 2026-05-04 08:02 | 39.34849 | 3.08937 | 19906 ft | 435 kts | 51° |
| 2026-05-04 08:03 | 39.36938 | 3.11733 | 20400 ft | 432 kts | 33° |
| 2026-05-04 08:03 | 39.39432 | 3.13892 | 20888 ft | 433 kts | 28° |
| 2026-05-04 08:03 | 39.41983 | 3.15998 | 21403 ft | 437 kts | 28° |
| 2026-05-04 08:03 | 39.44565 | 3.18117 | 21906 ft | 442 kts | 27° |
| 2026-05-04 08:04 | 39.47176 | 3.20257 | 22395 ft | 447 kts | 27° |
| 2026-05-04 08:04 | 39.49812 | 3.22427 | 22884 ft | 451 kts | 27° |
| 2026-05-04 08:04 | 39.52467 | 3.24625 | 23349 ft | 455 kts | 28° |
| 2026-05-04 08:04 | 39.55144 | 3.26846 | 23768 ft | 459 kts | 28° |
| 2026-05-04 08:05 | 39.57843 | 3.29091 | 24144 ft | 463 kts | 28° |
| 2026-05-04 08:05 | 39.60559 | 3.31354 | 24519 ft | 466 kts | 28° |
| 2026-05-04 08:05 | 39.63299 | 3.33635 | 24881 ft | 469 kts | 28° |
| 2026-05-04 08:05 | 39.66057 | 3.35930 | 25233 ft | 473 kts | 28° |
| 2026-05-04 08:06 | 39.68835 | 3.38243 | 25583 ft | 476 kts | 28° |
| 2026-05-04 08:06 | 39.71632 | 3.40571 | 25909 ft | 480 kts | 28° |
| 2026-05-04 08:06 | 39.74450 | 3.42920 | 26251 ft | 483 kts | 28° |
| 2026-05-04 08:06 | 39.77279 | 3.45286 | 26642 ft | 485 kts | 28° |
| 2026-05-04 08:08 | 39.97520 | 3.62284 | 28927 ft | 505 kts | 29° |
| 2026-05-04 08:08 | 40.00474 | 3.64778 | 29274 ft | 506 kts | 29° |
| 2026-05-04 08:10 | 40.24414 | 3.85037 | 31380 ft | 515 kts | 29° |
| 2026-05-04 08:11 | 40.27413 | 3.87592 | 31700 ft | 514 kts | 29° |
| 2026-05-04 08:11 | 40.33392 | 3.92689 | 32289 ft | 513 kts | 29° |
| 2026-05-04 08:11 | 40.36381 | 3.95237 | 32579 ft | 512 kts | 28° |
| 2026-05-04 08:12 | 40.39366 | 3.97786 | 32873 ft | 512 kts | 29° |
| 2026-05-04 08:12 | 40.42347 | 4.00336 | 33199 ft | 511 kts | 29° |
| 2026-05-04 08:12 | 40.45324 | 4.02887 | 33498 ft | 510 kts | 29° |
| 2026-05-04 08:12 | 40.48296 | 4.05434 | 33797 ft | 510 kts | 29° |
| 2026-05-04 08:13 | 40.51264 | 4.07983 | 34071 ft | 510 kts | 29° |
| 2026-05-04 08:13 | 40.54230 | 4.10532 | 34338 ft | 509 kts | 29° |
| 2026-05-04 08:13 | 40.57194 | 4.13079 | 34584 ft | 509 kts | 29° |
| 2026-05-04 08:13 | 40.60155 | 4.15624 | 34834 ft | 508 kts | 29° |
| 2026-05-04 08:14 | 40.63111 | 4.18166 | 35075 ft | 508 kts | 29° |
| 2026-05-04 08:14 | 40.66064 | 4.20711 | 35303 ft | 506 kts | 28° |
| 2026-05-04 08:14 | 40.69002 | 4.23251 | 35585 ft | 504 kts | 28° |
| 2026-05-04 08:16 | 40.89424 | 4.40963 | 36008 ft | 501 kts | 28° |
| 2026-05-04 08:16 | 40.95242 | 4.46034 | 36007 ft | 501 kts | 28° |
| 2026-05-04 08:17 | 41.01062 | 4.51116 | 36007 ft | 501 kts | 29° |
| 2026-05-04 08:17 | 41.06873 | 4.56212 | 36028 ft | 501 kts | 29° |
| 2026-05-04 08:19 | 41.30050 | 4.76603 | 36028 ft | 500 kts | 28° |
| 2026-05-04 08:20 | 41.35840 | 4.81728 | 36020 ft | 500 kts | 28° |
| 2026-05-04 08:20 | 41.41628 | 4.86865 | 36014 ft | 500 kts | 29° |
| 2026-05-04 08:21 | 41.47415 | 4.92006 | 36033 ft | 500 kts | 29° |
| 2026-05-04 08:21 | 41.53202 | 4.97154 | 36013 ft | 499 kts | 28° |
| 2026-05-04 08:22 | 41.58968 | 5.02292 | 36025 ft | 498 kts | 28° |
| 2026-05-04 08:24 | 41.81922 | 5.22897 | 36038 ft | 495 kts | 29° |
| 2026-05-04 08:24 | 41.87634 | 5.28061 | 36046 ft | 495 kts | 30° |
| 2026-05-04 08:25 | 41.93347 | 5.33218 | 36036 ft | 494 kts | 30° |
| 2026-05-04 08:25 | 41.99040 | 5.38373 | 36048 ft | 493 kts | 30° |
| 2026-05-04 08:27 | 42.21679 | 5.59003 | 36053 ft | 490 kts | 30° |
| 2026-05-04 08:28 | 42.27323 | 5.64165 | 36076 ft | 490 kts | 30° |
| 2026-05-04 08:28 | 42.32961 | 5.69334 | 36065 ft | 490 kts | 30° |
| 2026-05-04 08:29 | 42.38585 | 5.74519 | 36045 ft | 489 kts | 30° |
| 2026-05-04 08:31 | 42.60828 | 5.95544 | 36068 ft | 488 kts | 33° |
| 2026-05-04 08:33 | 42.82611 | 6.17590 | 36071 ft | 487 kts | 33° |
| 2026-05-04 08:35 | 43.04307 | 6.39607 | 36095 ft | 485 kts | 33° |
| 2026-05-04 08:35 | 43.09718 | 6.45130 | 36104 ft | 485 kts | 33° |
| 2026-05-04 08:37 | 43.28592 | 6.64508 | 36116 ft | 483 kts | 33° |
| 2026-05-04 08:38 | 43.33934 | 6.70014 | 36118 ft | 483 kts | 33° |
| 2026-05-04 08:38 | 43.39309 | 6.75560 | 36117 ft | 483 kts | 33° |
| 2026-05-04 08:40 | 43.60710 | 6.97816 | 36128 ft | 480 kts | 34° |
| 2026-05-04 08:41 | 43.66033 | 7.03387 | 36135 ft | 480 kts | 34° |
| 2026-05-04 08:41 | 43.71346 | 7.08958 | 36130 ft | 479 kts | 34° |
| 2026-05-04 08:42 | 43.76656 | 7.14524 | 36126 ft | 479 kts | 34° |
| 2026-05-04 08:42 | 43.81960 | 7.20101 | 36136 ft | 479 kts | 35° |
| 2026-05-04 08:43 | 43.87255 | 7.25694 | 36136 ft | 478 kts | 35° |
| 2026-05-04 08:43 | 43.92544 | 7.31289 | 36134 ft | 478 kts | 35° |
| 2026-05-04 08:44 | 43.96937 | 7.35939 | 36131 ft | 478 kts | 35° |
| 2026-05-04 08:46 | 44.18012 | 7.58415 | 36133 ft | 476 kts | 36° |
| 2026-05-04 08:46 | 44.23408 | 7.63713 | 36129 ft | 471 kts | 22° |
| 2026-05-04 08:46 | 44.26472 | 7.65210 | 36124 ft | 465 kts | 11° |
| 2026-05-04 08:47 | 44.29615 | 7.66298 | 36120 ft | 465 kts | 11° |
| 2026-05-04 08:47 | 44.35908 | 7.68429 | 36129 ft | 465 kts | 11° |
| 2026-05-04 08:48 | 44.42207 | 7.70547 | 36128 ft | 466 kts | 11° |
| 2026-05-04 08:48 | 44.48506 | 7.72694 | 36129 ft | 466 kts | 11° |
| 2026-05-04 08:49 | 44.54805 | 7.74860 | 36135 ft | 466 kts | 11° |
| 2026-05-04 08:50 | 44.76821 | 7.82433 | 36113 ft | 466 kts | 11° |
| 2026-05-04 08:51 | 44.83125 | 7.84624 | 36116 ft | 467 kts | 11° |
| 2026-05-04 08:51 | 44.89431 | 7.86818 | 36116 ft | 467 kts | 11° |
| 2026-05-04 08:52 | 44.95744 | 7.89008 | 36122 ft | 467 kts | 11° |
| 2026-05-04 08:52 | 45.02061 | 7.91205 | 36121 ft | 468 kts | 11° |
| 2026-05-04 08:54 | 45.27332 | 8.00057 | 36135 ft | 468 kts | 11° |
| 2026-05-04 08:55 | 45.33653 | 8.02283 | 36136 ft | 468 kts | 11° |
| 2026-05-04 08:55 | 45.39973 | 8.04524 | 36130 ft | 468 kts | 11° |
| 2026-05-04 09:01 | 46.06338 | 8.25552 | 36131 ft | 460 kts | 355° |
| 2026-05-04 09:01 | 46.12731 | 8.25266 | 36134 ft | 460 kts | 355° |
| 2026-05-04 09:02 | 46.19129 | 8.24969 | 36127 ft | 459 kts | 355° |
| 2026-05-04 09:02 | 46.25522 | 8.24688 | 36135 ft | 460 kts | 355° |
| 2026-05-04 09:03 | 46.31916 | 8.24399 | 36130 ft | 460 kts | 355° |
| 2026-05-04 09:03 | 46.38309 | 8.24106 | 36117 ft | 460 kts | 355° |
| 2026-05-04 09:04 | 46.44713 | 8.23822 | 36093 ft | 460 kts | 355° |
| 2026-05-04 09:04 | 46.51110 | 8.23534 | 36061 ft | 460 kts | 355° |
| 2026-05-04 09:05 | 46.57506 | 8.23251 | 36049 ft | 460 kts | 355° |
| 2026-05-04 09:05 | 46.63906 | 8.22965 | 36039 ft | 460 kts | 355° |
| 2026-05-04 09:06 | 46.70308 | 8.22676 | 36038 ft | 460 kts | 355° |
| 2026-05-04 09:07 | 46.92708 | 8.21645 | 34944 ft | 461 kts | 354° |
| 2026-05-04 09:08 | 46.95922 | 8.21497 | 34700 ft | 462 kts | 354° |
| 2026-05-04 09:08 | 46.99137 | 8.21348 | 34466 ft | 463 kts | 354° |
| 2026-05-04 09:08 | 47.02358 | 8.21197 | 34242 ft | 464 kts | 354° |
| 2026-05-04 09:08 | 47.05590 | 8.21047 | 33992 ft | 466 kts | 353° |
| 2026-05-04 09:09 | 47.08839 | 8.20896 | 33213 ft | 469 kts | 354° |
| 2026-05-04 09:09 | 47.12106 | 8.20743 | 32504 ft | 467 kts | 354° |
| 2026-05-04 09:09 | 47.15339 | 8.20597 | 31902 ft | 463 kts | 354° |
| 2026-05-04 09:09 | 47.18550 | 8.20455 | 31280 ft | 460 kts | 354° |
| 2026-05-04 09:10 | 47.21737 | 8.20315 | 30664 ft | 457 kts | 354° |
| 2026-05-04 09:10 | 47.24912 | 8.20172 | 30041 ft | 455 kts | 354° |
| 2026-05-04 09:10 | 47.28069 | 8.20025 | 29384 ft | 452 kts | 355° |
| 2026-05-04 09:10 | 47.31197 | 8.19875 | 28800 ft | 447 kts | 355° |
| 2026-05-04 09:11 | 47.34253 | 8.19727 | 28214 ft | 444 kts | 355° |
| 2026-05-04 09:11 | 47.37326 | 8.19578 | 27629 ft | 440 kts | 355° |
| 2026-05-04 09:11 | 47.40377 | 8.19434 | 27055 ft | 437 kts | 355° |
| 2026-05-04 09:11 | 47.43403 | 8.19295 | 26496 ft | 434 kts | 355° |
| 2026-05-04 09:12 | 47.46408 | 8.19156 | 25949 ft | 430 kts | 356° |
| 2026-05-04 09:12 | 47.49388 | 8.19020 | 25404 ft | 427 kts | 356° |
| 2026-05-04 09:14 | 47.69720 | 8.15628 | 21284 ft | 415 kts | 345° |
| 2026-05-04 09:14 | 47.72540 | 8.14715 | 20762 ft | 413 kts | 345° |
| 2026-05-04 09:14 | 47.75341 | 8.13809 | 20226 ft | 411 kts | 345° |
| 2026-05-04 09:14 | 47.78129 | 8.12904 | 19685 ft | 409 kts | 345° |
| 2026-05-04 09:15 | 47.80900 | 8.11998 | 19229 ft | 405 kts | 345° |
| 2026-05-04 09:15 | 47.83649 | 8.11094 | 18760 ft | 402 kts | 345° |
| 2026-05-04 09:15 | 47.86385 | 8.10197 | 18149 ft | 401 kts | 345° |
| 2026-05-04 09:15 | 47.89057 | 8.09324 | 17508 ft | 386 kts | 345° |
| 2026-05-04 09:17 | 48.09292 | 8.02650 | 13636 ft | 368 kts | 345° |
| 2026-05-04 09:18 | 48.11781 | 8.01824 | 13126 ft | 365 kts | 345° |
| 2026-05-04 09:18 | 48.14251 | 8.01003 | 12637 ft | 362 kts | 345° |
| 2026-05-04 09:18 | 48.16704 | 8.00190 | 12140 ft | 360 kts | 346° |
| 2026-05-04 09:18 | 48.19144 | 7.99381 | 11639 ft | 358 kts | 346° |
| 2026-05-04 09:19 | 48.21536 | 7.98583 | 11160 ft | 356 kts | 346° |
| 2026-05-04 09:19 | 48.23983 | 7.97769 | 10650 ft | 355 kts | 347° |
| 2026-05-04 09:19 | 48.26379 | 7.96972 | 10270 ft | 349 kts | 347° |
| 2026-05-04 09:19 | 48.28704 | 7.96197 | 10150 ft | 336 kts | 347° |
| 2026-05-04 09:20 | 48.30914 | 7.95460 | 10025 ft | 324 kts | 347° |
| 2026-05-04 09:20 | 48.33106 | 7.94728 | 9858 ft | 314 kts | 347° |
| 2026-05-04 09:20 | 48.35212 | 7.94024 | 9387 ft | 307 kts | 347° |
| 2026-05-04 09:20 | 48.37290 | 7.93327 | 8957 ft | 304 kts | 347° |
| 2026-05-04 09:21 | 48.39340 | 7.92641 | 8631 ft | 299 kts | 347° |
| 2026-05-04 09:21 | 48.41349 | 7.91968 | 8106 ft | 293 kts | 346° |
| 2026-05-04 09:21 | 48.43340 | 7.91303 | 7718 ft | 291 kts | 346° |
| 2026-05-04 09:21 | 48.45298 | 7.90651 | 7410 ft | 286 kts | 346° |
| 2026-05-04 09:22 | 48.47193 | 7.90017 | 6937 ft | 280 kts | 346° |
| 2026-05-04 09:22 | 48.49083 | 7.89380 | 6461 ft | 277 kts | 345° |
| 2026-05-04 09:22 | 48.50952 | 7.88750 | 6151 ft | 274 kts | 345° |
| 2026-05-04 09:22 | 48.52805 | 7.88126 | 5798 ft | 272 kts | 346° |
| 2026-05-04 09:23 | 48.54665 | 7.87672 | 5419 ft | 272 kts | 359° |
| 2026-05-04 09:23 | 48.56513 | 7.88189 | 5075 ft | 272 kts | 20° |
| 2026-05-04 09:23 | 48.58164 | 7.89585 | 4709 ft | 272 kts | 30° |
| 2026-05-04 09:23 | 48.59774 | 7.91079 | 4330 ft | 271 kts | 31° |
| 2026-05-04 09:25 | 48.69699 | 8.00322 | 2129 ft | 197 kts | 32° |
| 2026-05-04 09:25 | 48.70825 | 8.01375 | 1852 ft | 185 kts | 32° |
| 2026-05-04 09:26 | 48.71873 | 8.02361 | 1606 ft | 170 kts | 32° |
| 2026-05-04 09:26 | 48.72821 | 8.03250 | 1404 ft | 152 kts | 32° |
| 2026-05-04 09:26 | 48.73694 | 8.04070 | 1186 ft | 145 kts | 32° |
| 2026-05-04 09:26 | 48.74539 | 8.04865 | 979 ft | 142 kts | 32° |
| 2026-05-04 09:27 | 48.75381 | 8.05662 | 811 ft | 142 kts | 32° |
| 2026-05-04 09:27 | 48.76229 | 8.06454 | 634 ft | 143 kts | 31° |
| 2026-05-04 09:27 | 48.77076 | 8.07243 | 435 ft | 142 kts | 31° |
| 2026-05-04 09:27 | 48.77851 | 8.07971 | 412 ft | 111 kts | 32° |
| 2026-05-04 09:28 | 48.78360 | 8.08450 | 414 ft | 61 kts | 32° |
| 2026-05-04 09:28 | 48.78643 | 8.08717 | 410 ft | 44 kts | 32° |
| 2026-05-04 09:28 | 48.78894 | 8.08951 | 415 ft | 41 kts | 31° |
| 2026-05-04 09:28 | 48.79056 | 8.09148 | 413 ft | 21 kts | 87° |
| 2026-05-04 09:29 | 48.78963 | 8.09296 | 413 ft | 21 kts | 188° |
| 2026-05-04 09:29 | 48.78834 | 8.09183 | 410 ft | 22 kts | 212° |
| 2026-05-04 09:29 | 48.78696 | 8.09056 | 413 ft | 24 kts | 211° |
| 2026-05-04 09:29 | 48.78548 | 8.08918 | 410 ft | 26 kts | 212° |
| 2026-05-04 09:30 | 48.78391 | 8.08772 | 412 ft | 27 kts | 212° |
| 2026-05-04 09:30 | 48.78284 | 8.08671 | 412 ft | 28 kts | 212° |
| 2026-05-04 09:30 | 48.78171 | 8.08581 | 412 ft | 13 kts | 179° |
| 2026-05-04 09:30 | 48.78111 | 8.08675 | 410 ft | 12 kts | 121° |
| 2026-05-04 09:31 | 48.78096 | 8.08760 | 412 ft | 5 kts | 99° |
| 2026-05-04 09:31 | 48.78084 | 8.08801 | 410 ft | 3 kts | 117° |
| 2026-05-04 09:31 | 48.78078 | 8.08811 | 412 ft | 1 kts | 138° |
| 2026-05-04 09:31 | 48.78076 | 8.08813 | 412 ft | 0 kts | 142° |